Terminal Aerodrome Forecast
Issued by NWS

Home | Current Version | Previous Version | Text Only | Print | Product List | Glossary Off
Versions: 1 2 3 4 5 6 7 8 9 10 11 12 13 14 15 16 17 18 19 20 21 22 23

000
FTUS43 KABR 271101 AAC
TAFMBG
TAF AMD
KMBG 271101Z 2711/2806 32006KT P6SM SCT016 BKN035
      TEMPO 2711/2714 BKN016 OVC026
     FM271500 03008KT P6SM SKC=

USA.gov is the U.S. government's official web portal to all federal, state and local government web resources and services.